createdAt,value
2018-09-05T00:01:58.930Z,20.00
2018-09-05T00:04:26.112Z,20.00
2018-09-05T00:06:53.528Z,19.90
2018-09-05T00:09:20.910Z,19.90
2018-09-05T00:11:48.282Z,19.90
2018-09-05T00:14:15.639Z,19.90
2018-09-05T00:16:42.965Z,19.90
2018-09-05T00:19:10.322Z,19.80
2018-09-05T00:21:37.642Z,19.80
2018-09-05T00:24:05.002Z,19.80
2018-09-05T00:26:32.341Z,19.80
2018-09-05T00:29:00.010Z,19.80
2018-09-05T00:31:27.432Z,19.80
2018-09-05T00:33:54.747Z,19.80
2018-09-05T00:36:22.108Z,19.80
2018-09-05T00:38:49.408Z,19.70
2018-09-05T00:41:16.774Z,19.80
2018-09-05T00:43:44.143Z,19.80
2018-09-05T00:46:11.468Z,19.80
2018-09-05T00:48:38.792Z,19.80
2018-09-05T00:51:06.162Z,19.70
2018-09-05T00:53:33.490Z,19.60
2018-09-05T00:56:01.080Z,19.70
2018-09-05T00:58:29.394Z,19.60
2018-09-05T01:00:56.695Z,19.60
2018-09-05T01:03:24.020Z,19.60
2018-09-05T01:05:51.319Z,19.60
2018-09-05T01:08:18.613Z,19.60
2018-09-05T01:10:45.905Z,19.50
2018-09-05T01:13:13.325Z,19.60
2018-09-05T01:15:41.113Z,19.60
2018-09-05T01:18:08.294Z,19.60
2018-09-05T01:20:35.556Z,19.60
2018-09-05T01:23:02.740Z,19.50
2018-09-05T01:25:29.920Z,19.50
2018-09-05T01:27:57.098Z,19.50
2018-09-05T01:30:26.488Z,19.50
2018-09-05T01:32:54.124Z,19.40
2018-09-05T01:35:21.322Z,19.40
2018-09-05T01:37:48.476Z,19.40
2018-09-05T01:40:15.651Z,19.40
2018-09-05T01:42:42.844Z,19.30
2018-09-05T01:45:10.016Z,19.40
2018-09-05T01:47:37.179Z,19.40
2018-09-05T01:50:04.946Z,19.40
2018-09-05T01:52:32.148Z,19.30
2018-09-05T01:54:59.324Z,19.30
2018-09-05T01:57:26.498Z,19.20
2018-09-05T01:59:53.664Z,19.20
2018-09-05T02:02:21.141Z,19.20
2018-09-05T02:04:48.468Z,19.20
2018-09-05T02:07:16.784Z,19.10
2018-09-05T02:09:43.948Z,19.00
2018-09-05T02:12:11.530Z,19.10
2018-09-05T02:14:38.701Z,19.00
2018-09-05T02:17:05.872Z,19.00
2018-09-05T02:19:33.034Z,19.00
2018-09-05T02:22:00.332Z,18.90
2018-09-05T02:24:27.616Z,18.80
2018-09-05T02:26:54.946Z,18.90
2018-09-05T02:29:22.260Z,18.90
2018-09-05T02:31:49.565Z,18.80
2018-09-05T02:34:16.874Z,18.80
2018-09-05T02:36:44.224Z,18.60
2018-09-05T02:39:11.656Z,18.60
2018-09-05T02:41:45.800Z,18.60
2018-09-05T02:44:20.397Z,18.60
2018-09-05T02:46:47.565Z,18.60
2018-09-05T02:49:14.740Z,18.70
2018-09-05T02:51:42.104Z,18.70
2018-09-05T02:54:09.293Z,18.60
2018-09-05T02:56:36.460Z,18.40
2018-09-05T02:59:03.895Z,18.30
2018-09-05T03:01:31.108Z,18.30
2018-09-05T03:03:58.820Z,18.20
2018-09-05T03:06:26.011Z,18.10
2018-09-05T03:08:53.156Z,18.10
2018-09-05T03:11:20.331Z,18.00
2018-09-05T03:13:47.493Z,18.00
2018-09-05T03:16:14.671Z,18.00
2018-09-05T03:18:42.501Z,18.10
2018-09-05T03:21:10.528Z,18.00
2018-09-05T03:23:37.777Z,18.00
2018-09-05T03:26:04.929Z,18.00
2018-09-05T03:28:32.097Z,18.00
2018-09-05T03:30:59.269Z,18.00
2018-09-05T03:33:26.452Z,18.00
2018-09-05T03:35:53.621Z,17.90
2018-09-05T03:38:20.780Z,17.90
2018-09-05T03:40:47.956Z,17.90
2018-09-05T03:43:15.124Z,17.80
2018-09-05T03:45:42.288Z,17.70
2018-09-05T03:48:09.676Z,17.80
2018-09-05T03:50:37.013Z,17.80
2018-09-05T03:53:04.203Z,17.70
2018-09-05T03:55:31.372Z,17.70
2018-09-05T03:57:58.720Z,17.80
2018-09-05T04:00:30.505Z,17.80
2018-09-05T04:02:57.673Z,17.90
2018-09-05T04:05:25.051Z,17.90
2018-09-05T04:07:52.420Z,17.80
2018-09-05T04:10:19.591Z,17.70
2018-09-05T04:12:46.744Z,17.80
2018-09-05T04:15:13.896Z,17.80
2018-09-05T04:17:41.586Z,17.80
2018-09-05T04:20:09.329Z,17.80
2018-09-05T04:22:36.628Z,17.80
2018-09-05T04:25:03.908Z,17.90
2018-09-05T04:27:31.125Z,18.00
2018-09-05T04:29:58.336Z,18.00
2018-09-05T04:32:25.848Z,18.00
2018-09-05T04:34:53.075Z,18.00
2018-09-05T04:37:20.229Z,18.10
2018-09-05T04:39:47.384Z,18.10
2018-09-05T04:42:14.804Z,18.10
2018-09-05T04:44:41.969Z,18.10
2018-09-05T04:47:09.144Z,18.10
2018-09-05T04:49:36.333Z,18.10
2018-09-05T04:52:03.532Z,18.20
2018-09-05T04:54:30.708Z,18.10
2018-09-05T04:56:57.863Z,18.10
2018-09-05T04:59:25.041Z,18.10
2018-09-05T05:01:52.212Z,18.10
2018-09-05T05:04:19.392Z,18.00
2018-09-05T05:06:46.717Z,18.00
2018-09-05T05:09:14.011Z,18.00
2018-09-05T05:11:41.377Z,17.90
2018-09-05T05:14:08.899Z,18.00
2018-09-05T05:16:36.073Z,17.90
2018-09-05T05:19:03.674Z,17.90
2018-09-05T05:21:30.861Z,17.90
2018-09-05T05:23:59.098Z,18.00
2018-09-05T05:26:26.309Z,18.10
2018-09-05T05:28:53.736Z,18.10
2018-09-05T05:31:20.941Z,18.10
2018-09-05T05:33:48.097Z,18.10
2018-09-05T05:36:16.065Z,18.10
2018-09-05T05:38:43.271Z,18.10
2018-09-05T05:41:10.432Z,18.10
2018-09-05T05:43:37.640Z,18.10
2018-09-05T05:46:04.983Z,18.10
2018-09-05T05:48:32.159Z,18.10
2018-09-05T05:50:59.369Z,18.10
2018-09-05T05:53:26.524Z,18.10
2018-09-05T05:55:53.701Z,18.10
2018-09-05T05:58:21.049Z,18.10
2018-09-05T06:00:48.300Z,18.10
2018-09-05T06:03:15.531Z,18.10
2018-09-05T06:05:42.700Z,18.10
2018-09-05T06:08:11.177Z,18.10
2018-09-05T06:10:38.357Z,18.10
2018-09-05T06:13:05.512Z,18.10
2018-09-05T06:15:32.723Z,18.20
2018-09-05T06:18:00.348Z,18.20
2018-09-05T06:20:27.473Z,18.30
2018-09-05T06:22:54.660Z,18.30
2018-09-05T06:25:21.816Z,18.40
2018-09-05T06:27:49.181Z,18.40
2018-09-05T06:30:16.533Z,18.50
2018-09-05T06:32:43.720Z,18.50
2018-09-05T06:35:11.021Z,18.50
2018-09-05T06:37:38.203Z,18.60
2018-09-05T06:40:05.724Z,18.60
2018-09-05T06:42:33.051Z,18.70
2018-09-05T06:45:00.280Z,18.70
2018-09-05T06:47:27.417Z,18.70
2018-09-05T06:49:54.569Z,18.70
2018-09-05T06:52:21.909Z,18.80
2018-09-05T06:54:49.089Z,18.90
2018-09-05T06:57:16.436Z,18.90
2018-09-05T06:59:43.644Z,19.00
2018-09-05T07:02:10.828Z,19.00
2018-09-05T07:04:38.037Z,19.00
2018-09-05T07:07:05.299Z,19.00
2018-09-05T07:09:32.428Z,19.10
2018-09-05T07:14:34.118Z,19.10
2018-09-05T07:17:02.237Z,19.20
2018-09-05T07:19:29.598Z,19.20
2018-09-05T07:21:56.938Z,19.30
2018-09-05T07:24:24.168Z,19.30
2018-09-05T07:26:51.465Z,19.40
2018-09-05T07:29:18.660Z,19.40
2018-09-05T07:31:45.913Z,19.50
2018-09-05T07:34:13.168Z,19.60
2018-09-05T07:36:40.348Z,19.70
2018-09-05T07:39:08.701Z,19.80
2018-09-05T07:41:35.935Z,20.00
2018-09-05T07:44:03.397Z,20.00
2018-09-05T07:46:30.597Z,20.00
2018-09-05T07:48:58.149Z,20.00
2018-09-05T07:51:25.417Z,20.20
2018-09-05T07:53:52.847Z,20.20
2018-09-05T07:56:20.154Z,20.30
2018-09-05T07:58:47.420Z,20.30
2018-09-05T08:01:15.512Z,20.40
2018-09-05T08:03:42.793Z,20.60
2018-09-05T08:06:09.981Z,20.70
2018-09-05T08:08:37.140Z,20.80
2018-09-05T08:11:04.404Z,20.80
2018-09-05T08:13:31.649Z,20.90
2018-09-05T08:15:58.824Z,21.00
2018-09-05T08:18:25.977Z,21.00
2018-09-05T08:20:53.169Z,21.00
2018-09-05T08:23:20.353Z,21.00
2018-09-05T08:25:47.633Z,21.00
2018-09-05T08:28:14.807Z,21.10
2018-09-05T08:30:42.290Z,21.10
2018-09-05T08:33:09.669Z,21.20
2018-09-05T08:35:37.474Z,21.20
2018-09-05T08:38:04.808Z,21.30
2018-09-05T08:40:32.066Z,21.50
2018-09-05T08:42:59.526Z,21.50
2018-09-05T08:45:28.095Z,21.60
2018-09-05T08:47:54.970Z,21.60
2018-09-05T08:50:22.326Z,21.70
2018-09-05T08:52:49.887Z,21.70
2018-09-05T08:55:17.345Z,21.80
2018-09-05T08:57:44.669Z,21.80
2018-09-05T09:00:12.063Z,21.80
2018-09-05T09:02:39.519Z,21.90
2018-09-05T09:05:07.304Z,22.10
2018-09-05T09:07:35.090Z,22.10
2018-09-05T09:10:02.848Z,22.30
2018-09-05T09:12:31.098Z,22.30
2018-09-05T09:14:58.781Z,22.40
2018-09-05T09:17:26.307Z,22.40
2018-09-05T09:19:53.821Z,22.40
2018-09-05T09:22:21.237Z,22.50
2018-09-05T09:24:48.774Z,22.70
2018-09-05T09:27:16.177Z,22.80
2018-09-05T09:29:43.747Z,22.90
2018-09-05T09:32:11.278Z,23.00
2018-09-05T09:34:39.631Z,23.00
2018-09-05T09:37:07.255Z,23.00
2018-09-05T09:39:34.848Z,23.00
2018-09-05T09:42:02.517Z,23.10
2018-09-05T09:44:31.267Z,23.30
2018-09-05T09:47:05.519Z,23.30
2018-09-05T09:49:33.255Z,23.60
2018-09-05T09:52:06.478Z,23.70
2018-09-05T09:54:33.883Z,24.00
2018-09-05T09:57:01.384Z,24.10
2018-09-05T09:59:29.070Z,24.20
2018-09-05T10:02:02.110Z,24.30
2018-09-05T10:04:35.301Z,24.30
2018-09-05T10:07:08.603Z,24.50
2018-09-05T10:09:41.981Z,24.80
2018-09-05T10:12:15.187Z,24.90
2018-09-05T10:14:48.550Z,25.00
2018-09-05T10:17:21.796Z,25.10
2018-09-05T10:19:55.874Z,25.30
2018-09-05T10:22:23.689Z,25.20
2018-09-05T10:24:54.112Z,25.20
2018-09-05T10:27:22.282Z,25.10
2018-09-05T10:29:50.680Z,25.00
2018-09-05T10:32:19.472Z,25.10
2018-09-05T10:34:47.107Z,25.20
2018-09-05T10:37:15.494Z,25.30
2018-09-05T10:39:43.389Z,25.30
2018-09-05T10:42:11.116Z,25.30
2018-09-05T10:44:38.767Z,25.60
2018-09-05T10:47:06.930Z,25.70
2018-09-05T10:49:35.281Z,25.70
2018-09-05T10:52:03.972Z,25.60
2018-09-05T10:54:31.827Z,25.60
2018-09-05T10:57:00.885Z,25.60
2018-09-05T10:59:28.788Z,25.70
2018-09-05T11:01:57.427Z,25.90
2018-09-05T11:04:25.473Z,26.00
2018-09-05T11:06:54.930Z,26.20
2018-09-05T11:09:25.194Z,26.40
2018-09-05T11:11:53.760Z,26.40
2018-09-05T11:14:23.969Z,26.30
2018-09-05T11:16:53.938Z,26.20
2018-09-05T11:19:24.446Z,26.40
2018-09-05T11:24:46.840Z,26.30
2018-09-05T11:27:15.758Z,26.40
2018-09-05T11:29:45.051Z,26.40
2018-09-05T11:32:14.849Z,26.40
2018-09-05T11:34:44.561Z,26.60
2018-09-05T12:09:52.410Z,26.70
2018-09-05T12:12:20.070Z,29.30
2018-09-05T12:14:47.593Z,29.30
2018-09-05T12:17:15.138Z,29.40
2018-09-05T12:19:42.607Z,29.40
2018-09-05T12:22:10.144Z,29.40
2018-09-05T12:24:37.825Z,29.30
2018-09-05T12:27:05.303Z,29.20
2018-09-05T12:29:32.928Z,29.30
2018-09-05T12:32:00.458Z,29.50
2018-09-05T12:34:27.920Z,29.50
2018-09-05T12:36:55.424Z,29.70
2018-09-05T12:39:23.110Z,29.70
2018-09-05T12:41:50.616Z,29.80
2018-09-05T12:44:18.101Z,29.80
2018-09-05T12:46:45.581Z,29.90
2018-09-05T12:49:14.239Z,30.00
2018-09-05T12:51:41.733Z,30.10
2018-09-05T12:54:09.885Z,30.10
2018-09-05T12:56:37.411Z,30.10
2018-09-05T12:59:05.028Z,30.20
2018-09-05T13:01:32.518Z,30.30
2018-09-05T13:04:04.099Z,30.20
2018-09-05T13:06:31.648Z,30.20
2018-09-05T13:08:59.550Z,30.10
2018-09-05T13:11:27.060Z,30.20
2018-09-05T13:13:54.576Z,30.40
2018-09-05T13:16:22.038Z,30.40
2018-09-05T13:18:49.619Z,30.40
2018-09-05T13:21:17.176Z,30.40
2018-09-05T13:23:44.674Z,30.40
2018-09-05T13:26:12.128Z,30.40
2018-09-05T13:28:39.584Z,30.50
2018-09-05T13:31:07.182Z,30.50
2018-09-05T13:33:34.680Z,30.60
2018-09-05T13:36:02.238Z,30.60
2018-09-05T13:38:30.086Z,30.60
2018-09-05T13:40:57.589Z,30.40
2018-09-05T13:43:25.094Z,30.30
2018-09-05T13:45:52.602Z,30.40
2018-09-05T13:48:20.111Z,30.20
2018-09-05T13:50:47.789Z,29.90
2018-09-05T13:53:16.384Z,29.60
2018-09-05T13:55:44.983Z,29.20
2018-09-05T13:58:12.463Z,29.00
2018-09-05T14:00:40.106Z,28.70
2018-09-05T14:03:07.604Z,28.40
2018-09-05T14:06:13.836Z,28.30
2018-09-05T14:08:42.087Z,28.10
2018-09-05T14:11:10.671Z,27.80
2018-09-05T14:13:38.280Z,27.60
2018-09-05T14:16:05.722Z,27.50
2018-09-05T14:18:33.208Z,27.40
2018-09-05T14:21:00.681Z,27.30
2018-09-05T14:23:28.155Z,27.30
2018-09-05T14:25:55.641Z,27.20
2018-09-05T14:28:23.089Z,27.10
2018-09-05T14:30:50.550Z,26.90
2018-09-05T14:33:18.535Z,26.80
2018-09-05T14:35:45.957Z,26.90
2018-09-05T14:38:13.428Z,27.20
2018-09-05T14:40:41.064Z,27.50
2018-09-05T14:43:08.597Z,27.80
2018-09-05T14:45:39.331Z,28.00
2018-09-05T14:48:06.981Z,28.10
2018-09-05T14:50:34.517Z,28.20
2018-09-05T14:53:01.959Z,28.30
2018-09-05T14:55:29.588Z,28.50
2018-09-05T14:57:57.199Z,28.70
2018-09-05T15:00:24.699Z,28.80
2018-09-05T15:02:52.288Z,28.80
2018-09-05T15:05:19.857Z,28.70
2018-09-05T15:07:48.863Z,28.50
2018-09-05T15:10:16.744Z,28.30
2018-09-05T15:12:44.794Z,28.20
2018-09-05T15:15:12.787Z,27.90
2018-09-05T15:17:40.518Z,27.80
2018-09-05T15:20:08.925Z,27.70
2018-09-05T15:22:36.466Z,27.60
2018-09-05T15:25:04.057Z,27.50
2018-09-05T15:27:31.561Z,27.50
2018-09-05T15:29:59.063Z,27.70
2018-09-05T15:32:26.603Z,27.70
2018-09-05T15:34:54.106Z,27.50
2018-09-05T15:37:21.727Z,27.50
2018-09-05T15:39:49.213Z,27.30
2018-09-05T15:42:16.856Z,27.10
2018-09-05T15:44:44.338Z,27.00
2018-09-05T15:47:11.893Z,26.90
2018-09-05T15:49:39.425Z,26.80
2018-09-05T15:52:06.922Z,26.70
2018-09-05T15:54:34.392Z,26.80
2018-09-05T15:57:01.861Z,26.70
2018-09-05T15:59:29.470Z,26.70
2018-09-05T16:01:56.968Z,26.70
2018-09-05T16:04:24.456Z,26.70
2018-09-05T16:06:51.958Z,26.70
2018-09-05T16:09:19.615Z,26.80
2018-09-05T16:11:47.090Z,26.80
2018-09-05T16:14:14.795Z,27.00
2018-09-05T16:16:42.275Z,27.00
2018-09-05T16:19:09.801Z,27.00
2018-09-05T16:21:37.474Z,27.00
2018-09-05T16:24:05.015Z,27.00
2018-09-05T16:26:32.520Z,27.00
2018-09-05T16:29:00.352Z,27.10
2018-09-05T16:31:27.831Z,27.00
2018-09-05T16:33:55.321Z,27.00
2018-09-05T16:36:23.015Z,27.00
2018-09-05T16:38:50.868Z,27.00
2018-09-05T16:41:18.629Z,27.00
2018-09-05T16:43:46.155Z,26.90
2018-09-05T16:46:14.816Z,26.90
2018-09-05T16:48:42.937Z,26.90
2018-09-05T16:51:10.451Z,26.90
2018-09-05T16:53:38.485Z,26.90
2018-09-05T16:56:06.022Z,26.80
2018-09-05T16:58:33.607Z,26.90
2018-09-05T17:01:01.322Z,26.80
2018-09-05T17:03:28.800Z,26.80
2018-09-05T17:05:56.299Z,26.80
2018-09-05T17:08:23.784Z,26.70
2018-09-05T17:10:51.310Z,26.70
2018-09-05T17:13:18.783Z,26.70
2018-09-05T17:15:46.340Z,26.80
2018-09-05T17:18:13.853Z,26.90
2018-09-05T17:20:41.355Z,26.90
2018-09-05T17:23:09.350Z,26.80
2018-09-05T17:25:36.873Z,26.70
2018-09-05T17:28:04.383Z,26.60
2018-09-05T17:30:31.848Z,26.50
2018-09-05T17:32:59.329Z,26.40
2018-09-05T17:35:26.827Z,26.30
2018-09-05T17:37:54.404Z,26.20
2018-09-05T17:40:21.897Z,26.10
2018-09-05T17:42:49.774Z,25.90
2018-09-05T17:45:17.384Z,25.70
2018-09-05T17:47:44.880Z,25.60
2018-09-05T17:50:12.415Z,25.40
2018-09-05T17:52:39.898Z,25.30
2018-09-05T17:55:07.440Z,25.20
2018-09-05T17:57:35.143Z,25.10
2018-09-05T18:00:02.945Z,25.00
2018-09-05T18:02:30.685Z,24.80
2018-09-05T18:04:58.695Z,24.80
2018-09-05T18:07:26.211Z,24.70
2018-09-05T18:09:53.706Z,24.50
2018-09-05T18:12:21.182Z,24.50
2018-09-05T18:14:48.726Z,24.40
2018-09-05T18:17:16.208Z,24.40
2018-09-05T18:19:43.711Z,24.30
2018-09-05T18:22:11.212Z,24.20
2018-09-05T18:24:39.189Z,24.20
2018-09-05T18:27:06.667Z,24.10
2018-09-05T18:29:34.120Z,24.10
2018-09-05T18:32:01.613Z,24.00
2018-09-05T18:34:29.242Z,24.00
2018-09-05T18:36:56.720Z,23.90
2018-09-05T18:39:24.213Z,23.80
2018-09-05T18:41:51.698Z,23.80
2018-09-05T18:44:19.156Z,23.80
2018-09-05T18:46:46.644Z,23.80
2018-09-05T18:49:14.154Z,23.70
2018-09-05T18:51:41.613Z,23.70
2018-09-05T18:54:09.066Z,23.70
2018-09-05T18:56:36.570Z,23.60
2018-09-05T18:59:04.340Z,23.60
2018-09-05T19:01:31.977Z,23.60
2018-09-05T19:03:59.439Z,23.60
2018-09-05T19:06:26.932Z,23.60
2018-09-05T19:08:54.512Z,23.60
2018-09-05T19:11:22.102Z,23.60
2018-09-05T19:13:49.568Z,23.60
2018-09-05T19:16:17.169Z,23.60
2018-09-05T19:18:44.619Z,23.50
2018-09-05T19:21:12.105Z,23.50
2018-09-05T19:23:39.598Z,23.50
2018-09-05T19:26:07.219Z,23.30
2018-09-05T19:28:34.681Z,23.30
2018-09-05T19:31:02.173Z,23.20
2018-09-05T19:33:29.663Z,23.20
2018-09-05T19:35:57.120Z,23.10
2018-09-05T19:38:24.621Z,23.10
2018-09-05T19:40:52.096Z,23.00
2018-09-05T19:43:19.568Z,23.00
2018-09-05T19:45:47.121Z,23.00
2018-09-05T19:48:14.615Z,22.90
2018-09-05T19:50:42.932Z,22.90
2018-09-05T19:53:10.377Z,22.90
2018-09-05T19:55:37.943Z,22.90
2018-09-05T19:58:05.417Z,22.80
2018-09-05T20:00:32.867Z,22.80
2018-09-05T20:03:01.439Z,22.80
2018-09-05T20:05:28.916Z,22.80
2018-09-05T20:07:56.417Z,22.80
2018-09-05T20:10:24.443Z,22.70
2018-09-05T20:12:51.992Z,22.70
2018-09-05T20:15:19.506Z,22.70
2018-09-05T20:17:46.975Z,22.60
2018-09-05T20:20:14.490Z,22.60
2018-09-05T20:22:41.993Z,22.60
2018-09-05T20:25:09.535Z,22.50
2018-09-05T20:27:37.148Z,22.50
2018-09-05T20:30:04.686Z,22.50
2018-09-05T20:32:32.225Z,22.50
2018-09-05T20:34:59.805Z,22.50
2018-09-05T20:37:27.294Z,22.50
2018-09-05T20:39:54.733Z,22.50
2018-09-05T20:42:22.236Z,22.50
2018-09-05T20:44:49.866Z,22.50
2018-09-05T20:47:17.356Z,22.50
2018-09-05T20:49:44.857Z,22.50
2018-09-05T20:52:12.357Z,22.50
2018-09-05T20:54:40.083Z,22.40
2018-09-05T20:57:07.585Z,22.40
2018-09-05T20:59:35.273Z,22.30
2018-09-05T21:02:02.776Z,22.30
2018-09-05T21:04:30.292Z,22.30
2018-09-05T21:06:58.394Z,22.20
2018-09-05T21:09:25.855Z,22.20
2018-09-05T21:11:53.413Z,22.10
2018-09-05T21:14:20.922Z,22.10
2018-09-05T21:16:48.388Z,22.10
2018-09-05T21:19:16.058Z,22.00
2018-09-05T21:21:43.603Z,22.00
2018-09-05T21:24:11.092Z,21.90
2018-09-05T21:26:38.643Z,21.90
2018-09-05T21:29:06.099Z,21.80
2018-09-05T21:31:33.596Z,21.80
2018-09-05T21:34:01.153Z,21.70
2018-09-05T21:36:28.631Z,21.70
2018-09-05T21:38:56.240Z,21.70
2018-09-05T21:41:23.687Z,21.60
2018-09-05T21:43:51.171Z,21.60
2018-09-05T21:46:18.632Z,21.60
2018-09-05T21:48:46.091Z,21.50
2018-09-05T21:51:13.555Z,21.50
2018-09-05T21:53:41.036Z,21.50
2018-09-05T21:56:08.530Z,21.50
2018-09-05T21:58:36.015Z,21.50
2018-09-05T22:01:03.521Z,21.40
2018-09-05T22:03:31.232Z,21.40
2018-09-05T22:05:58.732Z,21.30
2018-09-05T22:08:26.236Z,21.30
2018-09-05T22:10:53.908Z,21.20
2018-09-05T22:13:21.412Z,21.10
2018-09-05T22:15:48.917Z,21.00
2018-09-05T22:18:17.398Z,21.00
2018-09-05T22:20:44.896Z,21.00
2018-09-05T22:23:12.409Z,20.90
2018-09-05T22:25:39.934Z,20.90
2018-09-05T22:28:07.464Z,20.80
2018-09-05T22:30:34.949Z,20.80
2018-09-05T22:33:03.258Z,20.90
2018-09-05T22:35:30.936Z,20.70
2018-09-05T22:37:58.684Z,20.70
2018-09-05T22:40:29.138Z,20.50
2018-09-05T22:43:08.244Z,20.40
2018-09-05T22:45:47.226Z,20.40
2018-09-05T22:48:34.319Z,20.50
2018-09-05T22:52:17.797Z,20.60
2018-09-05T22:57:04.940Z,20.50
2018-09-05T22:59:58.774Z,20.30
2018-09-05T23:02:46.383Z,20.30
2018-09-05T23:05:23.565Z,20.30
2018-09-05T23:08:57.262Z,20.30
2018-09-05T23:11:53.208Z,20.40
2018-09-05T23:14:46.862Z,20.40
2018-09-05T23:17:30.784Z,20.30
2018-09-05T23:22:15.310Z,20.40
2018-09-05T23:24:42.795Z,20.40
2018-09-05T23:27:10.280Z,20.40
2018-09-05T23:29:37.749Z,20.40
2018-09-05T23:32:05.314Z,20.30
2018-09-05T23:34:32.792Z,20.30
2018-09-05T23:37:00.310Z,20.30
2018-09-05T23:39:34.346Z,20.30
2018-09-05T23:42:01.872Z,20.10
2018-09-05T23:44:29.365Z,20.00
2018-09-05T23:46:56.842Z,20.00
2018-09-05T23:49:24.339Z,19.90
2018-09-05T23:51:51.857Z,19.90
2018-09-05T23:54:19.302Z,19.80
2018-09-05T23:56:47.055Z,19.80
2018-09-05T23:59:14.567Z,19.80
